sensor_id;sensor_type;location;lat;lon;timestamp;temperature;humidity
64111;DHT22;50401;48.188;11.566;2023-06-19T00:01:54;22.45;48.19
64111;DHT22;50401;48.188;11.566;2023-06-19T00:04:20;22.45;48.37
64111;DHT22;50401;48.188;11.566;2023-06-19T00:06:45;22.32;48.65
64111;DHT22;50401;48.188;11.566;2023-06-19T00:09:11;22.49;48.42
64111;DHT22;50401;48.188;11.566;2023-06-19T00:11:36;22.43;48.64
64111;DHT22;50401;48.188;11.566;2023-06-19T00:14:02;22.35;48.96
64111;DHT22;50401;48.188;11.566;2023-06-19T00:16:27;22.18;49.51
64111;DHT22;50401;48.188;11.566;2023-06-19T00:18:52;22.30;49.29
64111;DHT22;50401;48.188;11.566;2023-06-19T00:21:24;22.19;49.46
64111;DHT22;50401;48.188;11.566;2023-06-19T00:23:50;22.19;49.45
64111;DHT22;50401;48.188;11.566;2023-06-19T00:26:16;22.29;49.34
64111;DHT22;50401;48.188;11.566;2023-06-19T00:28:41;22.53;48.79
64111;DHT22;50401;48.188;11.566;2023-06-19T00:31:08;22.59;48.42
64111;DHT22;50401;48.188;11.566;2023-06-19T00:33:34;22.42;48.68
64111;DHT22;50401;48.188;11.566;2023-06-19T00:35:59;22.37;48.88
64111;DHT22;50401;48.188;11.566;2023-06-19T00:38:26;22.23;49.10
64111;DHT22;50401;48.188;11.566;2023-06-19T00:40:52;22.09;49.36
64111;DHT22;50401;48.188;11.566;2023-06-19T00:43:17;22.09;49.48
64111;DHT22;50401;48.188;11.566;2023-06-19T00:45:43;22.02;49.65
64111;DHT22;50401;48.188;11.566;2023-06-19T00:48:08;22.05;49.62
64111;DHT22;50401;48.188;11.566;2023-06-19T00:50:34;22.11;49.57
64111;DHT22;50401;48.188;11.566;2023-06-19T00:52:59;22.05;49.71
64111;DHT22;50401;48.188;11.566;2023-06-19T00:55:29;22.09;49.69
64111;DHT22;50401;48.188;11.566;2023-06-19T00:57:59;21.97;50.14
64111;DHT22;50401;48.188;11.566;2023-06-19T01:00:24;22.02;50.10
64111;DHT22;50401;48.188;11.566;2023-06-19T01:02:49;22.02;50.26
64111;DHT22;50401;48.188;11.566;2023-06-19T01:05:15;22.06;50.19
64111;DHT22;50401;48.188;11.566;2023-06-19T01:07:47;22.06;50.25
64111;DHT22;50401;48.188;11.566;2023-06-19T01:10:16;22.12;50.25
64111;DHT22;50401;48.188;11.566;2023-06-19T01:12:49;22.15;50.26
64111;DHT22;50401;48.188;11.566;2023-06-19T01:15:18;22.15;50.36
64111;DHT22;50401;48.188;11.566;2023-06-19T01:17:45;22.11;50.48
64111;DHT22;50401;48.188;11.566;2023-06-19T01:20:13;22.11;50.59
64111;DHT22;50401;48.188;11.566;2023-06-19T01:22:38;22.06;50.70
64111;DHT22;50401;48.188;11.566;2023-06-19T01:25:04;22.06;50.66
64111;DHT22;50401;48.188;11.566;2023-06-19T01:27:31;22.12;50.66
64111;DHT22;50401;48.188;11.566;2023-06-19T01:29:58;22.23;50.52
64111;DHT22;50401;48.188;11.566;2023-06-19T01:32:36;22.30;50.32
64111;DHT22;50401;48.188;11.566;2023-06-19T01:35:07;22.29;50.41
64111;DHT22;50401;48.188;11.566;2023-06-19T01:37:34;22.33;50.43
64111;DHT22;50401;48.188;11.566;2023-06-19T01:40:05;22.36;50.29
64111;DHT22;50401;48.188;11.566;2023-06-19T01:42:31;22.19;50.75
64111;DHT22;50401;48.188;11.566;2023-06-19T01:44:57;22.18;50.91
64111;DHT22;50401;48.188;11.566;2023-06-19T01:47:23;22.12;51.14
64111;DHT22;50401;48.188;11.566;2023-06-19T01:49:49;22.12;51.22
64111;DHT22;50401;48.188;11.566;2023-06-19T01:52:14;22.06;51.23
64111;DHT22;50401;48.188;11.566;2023-06-19T01:54:40;22.01;51.42
64111;DHT22;50401;48.188;11.566;2023-06-19T01:57:06;22.05;51.52
64111;DHT22;50401;48.188;11.566;2023-06-19T01:59:31;21.94;51.81
64111;DHT22;50401;48.188;11.566;2023-06-19T02:01:57;21.90;51.82
64111;DHT22;50401;48.188;11.566;2023-06-19T02:04:22;21.93;51.86
64111;DHT22;50401;48.188;11.566;2023-06-19T02:06:48;21.91;51.92
64111;DHT22;50401;48.188;11.566;2023-06-19T02:09:13;21.85;52.11
64111;DHT22;50401;48.188;11.566;2023-06-19T02:11:39;21.77;52.35
64111;DHT22;50401;48.188;11.566;2023-06-19T02:14:04;21.73;52.47
64111;DHT22;50401;48.188;11.566;2023-06-19T02:16:29;21.81;52.40
64111;DHT22;50401;48.188;11.566;2023-06-19T02:18:55;21.85;52.29
64111;DHT22;50401;48.188;11.566;2023-06-19T02:21:22;21.85;52.38
64111;DHT22;50401;48.188;11.566;2023-06-19T02:23:47;21.88;52.32
64111;DHT22;50401;48.188;11.566;2023-06-19T02:26:13;21.94;52.20
64111;DHT22;50401;48.188;11.566;2023-06-19T02:28:38;21.97;52.20
64111;DHT22;50401;48.188;11.566;2023-06-19T02:31:04;21.98;52.10
64111;DHT22;50401;48.188;11.566;2023-06-19T02:33:29;22.08;51.99
64111;DHT22;50401;48.188;11.566;2023-06-19T02:35:55;22.13;51.84
64111;DHT22;50401;48.188;11.566;2023-06-19T02:38:24;22.19;51.77
64111;DHT22;50401;48.188;11.566;2023-06-19T02:40:50;22.29;51.65
64111;DHT22;50401;48.188;11.566;2023-06-19T02:43:15;22.25;51.75
64111;DHT22;50401;48.188;11.566;2023-06-19T02:45:41;22.30;51.68
64111;DHT22;50401;48.188;11.566;2023-06-19T02:48:06;22.33;51.73
64111;DHT22;50401;48.188;11.566;2023-06-19T02:50:32;22.32;51.75
64111;DHT22;50401;48.188;11.566;2023-06-19T02:52:57;22.28;51.88
64111;DHT22;50401;48.188;11.566;2023-06-19T02:55:23;22.18;52.10
64111;DHT22;50401;48.188;11.566;2023-06-19T02:57:48;22.06;52.44
64111;DHT22;50401;48.188;11.566;2023-06-19T03:00:14;22.13;52.31
64111;DHT22;50401;48.188;11.566;2023-06-19T03:02:40;22.28;52.14
64111;DHT22;50401;48.188;11.566;2023-06-19T03:05:09;22.00;52.60
64111;DHT22;50401;48.188;11.566;2023-06-19T03:07:34;22.02;52.63
64111;DHT22;50401;48.188;11.566;2023-06-19T03:10:00;22.08;52.59
64111;DHT22;50401;48.188;11.566;2023-06-19T03:12:25;22.21;52.57
64111;DHT22;50401;48.188;11.566;2023-06-19T03:14:50;22.19;52.41
64111;DHT22;50401;48.188;11.566;2023-06-19T03:17:16;22.21;52.41
64111;DHT22;50401;48.188;11.566;2023-06-19T03:19:41;22.13;52.70
64111;DHT22;50401;48.188;11.566;2023-06-19T03:22:07;22.26;52.44
64111;DHT22;50401;48.188;11.566;2023-06-19T03:24:32;22.23;52.74
64111;DHT22;50401;48.188;11.566;2023-06-19T03:26:57;22.19;52.70
64111;DHT22;50401;48.188;11.566;2023-06-19T03:29:23;22.22;52.71
64111;DHT22;50401;48.188;11.566;2023-06-19T03:31:48;22.18;52.81
64111;DHT22;50401;48.188;11.566;2023-06-19T03:36:47;22.12;53.08
64111;DHT22;50401;48.188;11.566;2023-06-19T03:39:13;22.18;53.16
64111;DHT22;50401;48.188;11.566;2023-06-19T03:41:39;22.13;53.39
64111;DHT22;50401;48.188;11.566;2023-06-19T03:44:04;22.13;53.55
64111;DHT22;50401;48.188;11.566;2023-06-19T03:46:30;22.15;53.57
64111;DHT22;50401;48.188;11.566;2023-06-19T03:48:55;22.11;53.78
64111;DHT22;50401;48.188;11.566;2023-06-19T03:51:20;22.13;53.74
64111;DHT22;50401;48.188;11.566;2023-06-19T03:53:46;22.16;53.92
64111;DHT22;50401;48.188;11.566;2023-06-19T03:56:11;22.21;53.93
64111;DHT22;50401;48.188;11.566;2023-06-19T03:58:37;22.23;53.91
64111;DHT22;50401;48.188;11.566;2023-06-19T04:01:02;22.30;53.86
64111;DHT22;50401;48.188;11.566;2023-06-19T04:03:28;22.43;53.93
64111;DHT22;50401;48.188;11.566;2023-06-19T04:05:54;22.46;53.75
64111;DHT22;50401;48.188;11.566;2023-06-19T04:08:19;22.59;53.89
64111;DHT22;50401;48.188;11.566;2023-06-19T04:10:45;22.57;53.95
64111;DHT22;50401;48.188;11.566;2023-06-19T04:13:10;22.67;53.92
64111;DHT22;50401;48.188;11.566;2023-06-19T04:15:36;22.67;54.56
64111;DHT22;50401;48.188;11.566;2023-06-19T04:18:02;22.72;54.85
64111;DHT22;50401;48.188;11.566;2023-06-19T04:20:28;22.78;54.44
64111;DHT22;50401;48.188;11.566;2023-06-19T04:22:53;22.80;54.78
64111;DHT22;50401;48.188;11.566;2023-06-19T04:25:19;22.78;55.28
64111;DHT22;50401;48.188;11.566;2023-06-19T04:27:44;22.77;56.33
64111;DHT22;50401;48.188;11.566;2023-06-19T04:30:11;22.83;57.44
64111;DHT22;50401;48.188;11.566;2023-06-19T04:32:37;22.80;57.09
64111;DHT22;50401;48.188;11.566;2023-06-19T04:35:06;22.77;57.14
64111;DHT22;50401;48.188;11.566;2023-06-19T04:37:31;22.77;56.12
64111;DHT22;50401;48.188;11.566;2023-06-19T04:39:57;22.81;56.25
64111;DHT22;50401;48.188;11.566;2023-06-19T04:42:22;22.77;56.83
64111;DHT22;50401;48.188;11.566;2023-06-19T04:44:49;22.80;56.95
64111;DHT22;50401;48.188;11.566;2023-06-19T04:47:17;22.78;56.75
64111;DHT22;50401;48.188;11.566;2023-06-19T04:49:43;22.80;56.78
64111;DHT22;50401;48.188;11.566;2023-06-19T04:52:08;22.80;57.22
64111;DHT22;50401;48.188;11.566;2023-06-19T04:54:34;22.75;57.51
64111;DHT22;50401;48.188;11.566;2023-06-19T04:56:59;22.77;58.56
64111;DHT22;50401;48.188;11.566;2023-06-19T04:59:25;22.74;59.72
64111;DHT22;50401;48.188;11.566;2023-06-19T05:01:51;22.68;61.47
64111;DHT22;50401;48.188;11.566;2023-06-19T05:04:19;22.64;61.97
64111;DHT22;50401;48.188;11.566;2023-06-19T05:06:45;22.60;61.73
64111;DHT22;50401;48.188;11.566;2023-06-19T05:09:10;22.56;61.42
64111;DHT22;50401;48.188;11.566;2023-06-19T05:11:38;22.52;61.14
64111;DHT22;50401;48.188;11.566;2023-06-19T05:14:04;22.42;62.16
64111;DHT22;50401;48.188;11.566;2023-06-19T05:16:29;22.42;61.99
64111;DHT22;50401;48.188;11.566;2023-06-19T05:18:54;22.42;62.04
64111;DHT22;50401;48.188;11.566;2023-06-19T05:21:20;22.36;61.72
64111;DHT22;50401;48.188;11.566;2023-06-19T05:23:45;22.37;61.30
64111;DHT22;50401;48.188;11.566;2023-06-19T05:26:18;22.46;60.97
64111;DHT22;50401;48.188;11.566;2023-06-19T05:28:43;22.35;62.01
64111;DHT22;50401;48.188;11.566;2023-06-19T05:31:09;22.32;61.87
64111;DHT22;50401;48.188;11.566;2023-06-19T05:33:34;22.36;62.67
64111;DHT22;50401;48.188;11.566;2023-06-19T05:36:00;22.37;63.56
64111;DHT22;50401;48.188;11.566;2023-06-19T05:38:26;22.43;63.85
64111;DHT22;50401;48.188;11.566;2023-06-19T05:40:55;22.25;62.82
64111;DHT22;50401;48.188;11.566;2023-06-19T05:43:21;22.39;62.22
64111;DHT22;50401;48.188;11.566;2023-06-19T05:45:47;22.50;62.02
64111;DHT22;50401;48.188;11.566;2023-06-19T05:48:12;22.56;60.58
64111;DHT22;50401;48.188;11.566;2023-06-19T05:50:38;22.64;60.08
64111;DHT22;50401;48.188;11.566;2023-06-19T05:53:04;22.74;59.92
64111;DHT22;50401;48.188;11.566;2023-06-19T05:55:30;22.86;59.37
64111;DHT22;50401;48.188;11.566;2023-06-19T05:57:55;22.95;58.54
64111;DHT22;50401;48.188;11.566;2023-06-19T06:00:21;22.99;57.94
64111;DHT22;50401;48.188;11.566;2023-06-19T06:02:47;23.02;57.55
64111;DHT22;50401;48.188;11.566;2023-06-19T06:05:13;23.02;57.28
64111;DHT22;50401;48.188;11.566;2023-06-19T06:07:38;23.11;57.15
64111;DHT22;50401;48.188;11.566;2023-06-19T06:10:04;23.19;56.82
64111;DHT22;50401;48.188;11.566;2023-06-19T06:12:30;23.24;56.51
64111;DHT22;50401;48.188;11.566;2023-06-19T06:14:58;23.30;56.61
64111;DHT22;50401;48.188;11.566;2023-06-19T06:17:23;23.39;55.91
64111;DHT22;50401;48.188;11.566;2023-06-19T06:19:49;23.47;55.64
64111;DHT22;50401;48.188;11.566;2023-06-19T06:22:14;23.57;55.31
64111;DHT22;50401;48.188;11.566;2023-06-19T06:24:40;23.74;54.97
64111;DHT22;50401;48.188;11.566;2023-06-19T06:27:05;23.92;54.40
64111;DHT22;50401;48.188;11.566;2023-06-19T06:29:31;24.10;53.97
64111;DHT22;50401;48.188;11.566;2023-06-19T06:32:04;24.44;52.94
64111;DHT22;50401;48.188;11.566;2023-06-19T06:34:31;24.65;52.90
64111;DHT22;50401;48.188;11.566;2023-06-19T06:36:57;26.63;48.43
64111;DHT22;50401;48.188;11.566;2023-06-19T06:39:23;28.34;45.01
64111;DHT22;50401;48.188;11.566;2023-06-19T06:41:48;28.87;43.85
64111;DHT22;50401;48.188;11.566;2023-06-19T06:44:14;28.17;44.84
64111;DHT22;50401;48.188;11.566;2023-06-19T06:46:39;27.55;45.66
64111;DHT22;50401;48.188;11.566;2023-06-19T06:49:04;26.92;46.67
64111;DHT22;50401;48.188;11.566;2023-06-19T06:51:30;26.73;47.12
64111;DHT22;50401;48.188;11.566;2023-06-19T06:53:55;26.14;48.18
64111;DHT22;50401;48.188;11.566;2023-06-19T06:56:20;26.02;48.49
64111;DHT22;50401;48.188;11.566;2023-06-19T06:58:46;26.00;48.58
64111;DHT22;50401;48.188;11.566;2023-06-19T07:01:12;26.09;48.53
64111;DHT22;50401;48.188;11.566;2023-06-19T07:03:37;26.17;48.34
64111;DHT22;50401;48.188;11.566;2023-06-19T07:06:04;26.30;48.25
64111;DHT22;50401;48.188;11.566;2023-06-19T07:08:30;26.20;48.68
64111;DHT22;50401;48.188;11.566;2023-06-19T07:10:55;25.93;49.68
64111;DHT22;50401;48.188;11.566;2023-06-19T07:13:21;26.17;48.98
64111;DHT22;50401;48.188;11.566;2023-06-19T07:15:46;26.23;49.00
64111;DHT22;50401;48.188;11.566;2023-06-19T07:18:12;26.33;48.97
64111;DHT22;50401;48.188;11.566;2023-06-19T07:20:37;26.86;47.96
64111;DHT22;50401;48.188;11.566;2023-06-19T07:23:02;26.96;47.79
64111;DHT22;50401;48.188;11.566;2023-06-19T07:25:28;26.99;48.45
64111;DHT22;50401;48.188;11.566;2023-06-19T07:27:56;27.39;48.03
64111;DHT22;50401;48.188;11.566;2023-06-19T07:30:21;28.21;46.85
64111;DHT22;50401;48.188;11.566;2023-06-19T07:32:47;27.86;47.60
64111;DHT22;50401;48.188;11.566;2023-06-19T07:35:12;27.66;47.50
64111;DHT22;50401;48.188;11.566;2023-06-19T07:37:38;27.21;47.55
64111;DHT22;50401;48.188;11.566;2023-06-19T07:40:03;27.06;47.94
64111;DHT22;50401;48.188;11.566;2023-06-19T07:42:30;26.85;48.34
64111;DHT22;50401;48.188;11.566;2023-06-19T07:44:55;26.90;48.73
64111;DHT22;50401;48.188;11.566;2023-06-19T07:47:21;27.31;47.80
64111;DHT22;50401;48.188;11.566;2023-06-19T07:49:46;27.67;47.00
64111;DHT22;50401;48.188;11.566;2023-06-19T07:52:12;27.51;47.31
64111;DHT22;50401;48.188;11.566;2023-06-19T07:55:08;27.55;47.42
64111;DHT22;50401;48.188;11.566;2023-06-19T07:57:33;27.63;47.01
64111;DHT22;50401;48.188;11.566;2023-06-19T08:00:01;28.15;46.42
64111;DHT22;50401;48.188;11.566;2023-06-19T08:02:32;28.55;45.63
64111;DHT22;50401;48.188;11.566;2023-06-19T08:04:57;29.03;44.75
64111;DHT22;50401;48.188;11.566;2023-06-19T08:07:23;31.11;40.81
64111;DHT22;50401;48.188;11.566;2023-06-19T08:09:48;32.33;38.59
64111;DHT22;50401;48.188;11.566;2023-06-19T08:12:14;32.82;37.86
64111;DHT22;50401;48.188;11.566;2023-06-19T08:14:39;33.37;36.72
64111;DHT22;50401;48.188;11.566;2023-06-19T08:17:05;33.09;37.23
64111;DHT22;50401;48.188;11.566;2023-06-19T08:19:30;32.39;38.43
64111;DHT22;50401;48.188;11.566;2023-06-19T08:21:56;31.88;39.14
64111;DHT22;50401;48.188;11.566;2023-06-19T08:24:21;31.91;39.48
64111;DHT22;50401;48.188;11.566;2023-06-19T08:26:47;32.63;38.29
64111;DHT22;50401;48.188;11.566;2023-06-19T08:29:16;32.90;37.54
64111;DHT22;50401;48.188;11.566;2023-06-19T08:31:42;32.98;37.07
64111;DHT22;50401;48.188;11.566;2023-06-19T08:34:07;33.18;36.78
64111;DHT22;50401;48.188;11.566;2023-06-19T08:36:35;33.63;36.41
64111;DHT22;50401;48.188;11.566;2023-06-19T08:39:02;33.90;36.20
64111;DHT22;50401;48.188;11.566;2023-06-19T08:41:28;33.42;36.75
64111;DHT22;50401;48.188;11.566;2023-06-19T08:43:54;33.50;36.54
64111;DHT22;50401;48.188;11.566;2023-06-19T08:46:20;33.75;36.45
64111;DHT22;50401;48.188;11.566;2023-06-19T08:48:46;33.45;36.84
64111;DHT22;50401;48.188;11.566;2023-06-19T08:51:11;33.08;37.12
64111;DHT22;50401;48.188;11.566;2023-06-19T08:53:54;33.33;35.98
64111;DHT22;50401;48.188;11.566;2023-06-19T08:56:20;33.12;36.51
64111;DHT22;50401;48.188;11.566;2023-06-19T08:58:46;32.41;36.92
64111;DHT22;50401;48.188;11.566;2023-06-19T09:01:16;32.12;37.57
64111;DHT22;50401;48.188;11.566;2023-06-19T09:03:42;31.70;38.51
64111;DHT22;50401;48.188;11.566;2023-06-19T09:06:08;31.18;39.41
64111;DHT22;50401;48.188;11.566;2023-06-19T09:08:34;30.57;40.31
64111;DHT22;50401;48.188;11.566;2023-06-19T09:11:03;30.39;40.85
64111;DHT22;50401;48.188;11.566;2023-06-19T09:13:30;30.29;40.24
64111;DHT22;50401;48.188;11.566;2023-06-19T09:16:06;29.70;41.26
64111;DHT22;50401;48.188;11.566;2023-06-19T09:18:46;29.76;41.51
64111;DHT22;50401;48.188;11.566;2023-06-19T09:21:18;29.34;42.70
64111;DHT22;50401;48.188;11.566;2023-06-19T09:23:45;29.45;42.78
64111;DHT22;50401;48.188;11.566;2023-06-19T09:26:14;29.43;42.96
64111;DHT22;50401;48.188;11.566;2023-06-19T09:28:40;29.21;43.49
64111;DHT22;50401;48.188;11.566;2023-06-19T09:31:09;29.36;43.25
64111;DHT22;50401;48.188;11.566;2023-06-19T09:33:35;29.17;43.94
64111;DHT22;50401;48.188;11.566;2023-06-19T09:36:04;29.35;43.93
64111;DHT22;50401;48.188;11.566;2023-06-19T09:38:32;29.01;44.61
64111;DHT22;50401;48.188;11.566;2023-06-19T09:41:01;29.21;44.38
64111;DHT22;50401;48.188;11.566;2023-06-19T09:43:36;29.34;44.46
64111;DHT22;50401;48.188;11.566;2023-06-19T09:46:04;29.36;44.33
64111;DHT22;50401;48.188;11.566;2023-06-19T09:48:31;29.52;44.09
64111;DHT22;50401;48.188;11.566;2023-06-19T09:51:18;30.07;43.50
64111;DHT22;50401;48.188;11.566;2023-06-19T09:53:48;30.46;42.63
64111;DHT22;50401;48.188;11.566;2023-06-19T09:56:15;30.97;41.85
64111;DHT22;50401;48.188;11.566;2023-06-19T09:58:44;31.16;41.58
64111;DHT22;50401;48.188;11.566;2023-06-19T10:01:10;31.10;41.81
64111;DHT22;50401;48.188;11.566;2023-06-19T10:03:36;31.12;41.76
64111;DHT22;50401;48.188;11.566;2023-06-19T10:06:03;30.92;41.83
64111;DHT22;50401;48.188;11.566;2023-06-19T10:08:40;30.80;41.92
64111;DHT22;50401;48.188;11.566;2023-06-19T10:11:06;30.76;42.17
64111;DHT22;50401;48.188;11.566;2023-06-19T10:13:36;30.49;42.41
64111;DHT22;50401;48.188;11.566;2023-06-19T10:16:04;30.67;42.39
64111;DHT22;50401;48.188;11.566;2023-06-19T10:18:32;30.74;42.14
64111;DHT22;50401;48.188;11.566;2023-06-19T10:20:57;30.80;42.18
64111;DHT22;50401;48.188;11.566;2023-06-19T10:23:26;30.81;41.97
64111;DHT22;50401;48.188;11.566;2023-06-19T10:28:30;30.87;41.38
64111;DHT22;50401;48.188;11.566;2023-06-19T10:30:57;30.80;41.52
64111;DHT22;50401;48.188;11.566;2023-06-19T10:33:24;30.73;41.03
64111;DHT22;50401;48.188;11.566;2023-06-19T10:35:51;30.62;40.97
64111;DHT22;50401;48.188;11.566;2023-06-19T10:38:16;30.60;40.45
64111;DHT22;50401;48.188;11.566;2023-06-19T10:40:43;30.51;40.72
64111;DHT22;50401;48.188;11.566;2023-06-19T10:43:10;30.43;40.53
64111;DHT22;50401;48.188;11.566;2023-06-19T10:45:35;30.42;41.21
64111;DHT22;50401;48.188;11.566;2023-06-19T10:48:02;30.42;40.65
64111;DHT22;50401;48.188;11.566;2023-06-19T10:50:29;30.35;40.62
64111;DHT22;50401;48.188;11.566;2023-06-19T10:52:54;30.10;40.77
64111;DHT22;50401;48.188;11.566;2023-06-19T10:55:21;30.01;41.02
64111;DHT22;50401;48.188;11.566;2023-06-19T10:57:48;29.94;40.99
64111;DHT22;50401;48.188;11.566;2023-06-19T11:00:30;29.83;41.86
64111;DHT22;50401;48.188;11.566;2023-06-19T11:02:57;29.74;41.78
64111;DHT22;50401;48.188;11.566;2023-06-19T11:05:24;29.46;41.62
64111;DHT22;50401;48.188;11.566;2023-06-19T11:07:55;29.35;42.59
64111;DHT22;50401;48.188;11.566;2023-06-19T11:10:23;29.34;42.16
64111;DHT22;50401;48.188;11.566;2023-06-19T11:12:56;29.53;42.00
64111;DHT22;50401;48.188;11.566;2023-06-19T11:15:32;29.49;41.64
64111;DHT22;50401;48.188;11.566;2023-06-19T11:17:59;29.67;41.37
64111;DHT22;50401;48.188;11.566;2023-06-19T11:20:25;29.62;41.45
64111;DHT22;50401;48.188;11.566;2023-06-19T11:22:56;29.62;41.64
64111;DHT22;50401;48.188;11.566;2023-06-19T11:25:22;29.60;41.65
64111;DHT22;50401;48.188;11.566;2023-06-19T11:27:47;29.70;41.33
64111;DHT22;50401;48.188;11.566;2023-06-19T11:30:17;29.10;41.75
64111;DHT22;50401;48.188;11.566;2023-06-19T11:32:43;29.03;42.65
64111;DHT22;50401;48.188;11.566;2023-06-19T11:35:11;29.03;42.02
64111;DHT22;50401;48.188;11.566;2023-06-19T11:37:41;29.17;42.73
64111;DHT22;50401;48.188;11.566;2023-06-19T11:40:07;29.42;42.17
64111;DHT22;50401;48.188;11.566;2023-06-19T11:42:51;29.49;41.59
64111;DHT22;50401;48.188;11.566;2023-06-19T11:45:17;29.53;41.75
64111;DHT22;50401;48.188;11.566;2023-06-19T11:47:46;29.63;41.90
64111;DHT22;50401;48.188;11.566;2023-06-19T11:50:13;29.70;42.77
64111;DHT22;50401;48.188;11.566;2023-06-19T11:52:42;29.66;42.35
64111;DHT22;50401;48.188;11.566;2023-06-19T11:55:08;29.67;42.76
64111;DHT22;50401;48.188;11.566;2023-06-19T11:57:34;29.65;41.20
64111;DHT22;50401;48.188;11.566;2023-06-19T11:59:59;29.70;41.34
64111;DHT22;50401;48.188;11.566;2023-06-19T12:02:25;29.88;48.45
64111;DHT22;50401;48.188;11.566;2023-06-19T12:04:51;29.80;45.26
64111;DHT22;50401;48.188;11.566;2023-06-19T12:07:17;29.72;46.96
64111;DHT22;50401;48.188;11.566;2023-06-19T12:09:42;29.21;42.15
64111;DHT22;50401;48.188;11.566;2023-06-19T12:12:09;29.34;42.05
64111;DHT22;50401;48.188;11.566;2023-06-19T12:14:34;29.63;44.25
64111;DHT22;50401;48.188;11.566;2023-06-19T12:17:00;29.88;41.95
64111;DHT22;50401;48.188;11.566;2023-06-19T12:19:26;30.02;41.01
64111;DHT22;50401;48.188;11.566;2023-06-19T12:21:52;30.05;40.85
64111;DHT22;50401;48.188;11.566;2023-06-19T12:24:18;30.08;40.58
64111;DHT22;50401;48.188;11.566;2023-06-19T12:26:43;30.17;40.50
64111;DHT22;50401;48.188;11.566;2023-06-19T12:29:10;30.12;40.33
64111;DHT22;50401;48.188;11.566;2023-06-19T12:31:36;30.02;40.95
64111;DHT22;50401;48.188;11.566;2023-06-19T12:34:02;30.01;40.21
64111;DHT22;50401;48.188;11.566;2023-06-19T12:36:28;30.10;40.08
64111;DHT22;50401;48.188;11.566;2023-06-19T12:38:56;30.17;39.85
64111;DHT22;50401;48.188;11.566;2023-06-19T12:41:21;30.31;39.74
64111;DHT22;50401;48.188;11.566;2023-06-19T12:43:47;30.35;39.74
64111;DHT22;50401;48.188;11.566;2023-06-19T12:46:13;30.28;39.59
64111;DHT22;50401;48.188;11.566;2023-06-19T12:48:40;30.08;39.98
64111;DHT22;50401;48.188;11.566;2023-06-19T12:51:05;29.46;40.88
64111;DHT22;50401;48.188;11.566;2023-06-19T12:53:31;29.43;41.03
64111;DHT22;50401;48.188;11.566;2023-06-19T12:55:57;29.12;41.21
64111;DHT22;50401;48.188;11.566;2023-06-19T12:58:23;29.31;41.23
64111;DHT22;50401;48.188;11.566;2023-06-19T13:00:48;29.43;41.20
64111;DHT22;50401;48.188;11.566;2023-06-19T13:03:13;29.62;40.95
64111;DHT22;50401;48.188;11.566;2023-06-19T13:05:39;29.67;40.64
64111;DHT22;50401;48.188;11.566;2023-06-19T13:08:04;29.55;40.65
64111;DHT22;50401;48.188;11.566;2023-06-19T13:10:30;29.46;40.85
64111;DHT22;50401;48.188;11.566;2023-06-19T13:12:55;29.45;40.99
64111;DHT22;50401;48.188;11.566;2023-06-19T13:15:23;29.46;40.93
64111;DHT22;50401;48.188;11.566;2023-06-19T13:17:49;29.49;41.41
64111;DHT22;50401;48.188;11.566;2023-06-19T13:20:14;29.42;41.39
64111;DHT22;50401;48.188;11.566;2023-06-19T13:22:40;29.39;41.34
64111;DHT22;50401;48.188;11.566;2023-06-19T13:25:06;29.43;41.26
64111;DHT22;50401;48.188;11.566;2023-06-19T13:27:33;29.36;40.94
64111;DHT22;50401;48.188;11.566;2023-06-19T13:30:00;28.67;42.33
64111;DHT22;50401;48.188;11.566;2023-06-19T13:32:29;28.90;42.35
64111;DHT22;50401;48.188;11.566;2023-06-19T13:34:54;28.34;43.25
64111;DHT22;50401;48.188;11.566;2023-06-19T13:37:23;28.77;42.62
64111;DHT22;50401;48.188;11.566;2023-06-19T13:39:48;28.76;42.58
64111;DHT22;50401;48.188;11.566;2023-06-19T13:42:14;28.93;42.23
64111;DHT22;50401;48.188;11.566;2023-06-19T13:44:39;28.65;42.70
64111;DHT22;50401;48.188;11.566;2023-06-19T13:47:05;28.42;43.07
64111;DHT22;50401;48.188;11.566;2023-06-19T13:49:31;28.37;43.15
64111;DHT22;50401;48.188;11.566;2023-06-19T13:51:56;28.13;43.71
64111;DHT22;50401;48.188;11.566;2023-06-19T13:54:22;28.15;43.57
64111;DHT22;50401;48.188;11.566;2023-06-19T13:56:54;28.35;43.37
64111;DHT22;50401;48.188;11.566;2023-06-19T13:59:20;28.49;43.22
64111;DHT22;50401;48.188;11.566;2023-06-19T14:01:45;28.35;43.31
64111;DHT22;50401;48.188;11.566;2023-06-19T14:04:11;28.34;43.33
64111;DHT22;50401;48.188;11.566;2023-06-19T14:06:37;28.51;43.04
64111;DHT22;50401;48.188;11.566;2023-06-19T14:09:03;28.67;42.80
64111;DHT22;50401;48.188;11.566;2023-06-19T14:11:29;28.52;42.91
64111;DHT22;50401;48.188;11.566;2023-06-19T14:13:55;28.47;43.12
64111;DHT22;50401;48.188;11.566;2023-06-19T14:16:20;28.56;43.00
64111;DHT22;50401;48.188;11.566;2023-06-19T14:18:46;28.42;43.16
64111;DHT22;50401;48.188;11.566;2023-06-19T14:21:11;28.38;43.29
64111;DHT22;50401;48.188;11.566;2023-06-19T14:23:37;28.49;43.32
64111;DHT22;50401;48.188;11.566;2023-06-19T14:26:08;28.58;43.05
64111;DHT22;50401;48.188;11.566;2023-06-19T14:28:33;28.49;43.36
64111;DHT22;50401;48.188;11.566;2023-06-19T14:30:59;28.53;43.10
64111;DHT22;50401;48.188;11.566;2023-06-19T14:33:24;28.21;43.75
64111;DHT22;50401;48.188;11.566;2023-06-19T14:35:49;28.40;43.27
64111;DHT22;50401;48.188;11.566;2023-06-19T14:38:15;28.52;43.08
64111;DHT22;50401;48.188;11.566;2023-06-19T14:40:44;28.72;43.10
64111;DHT22;50401;48.188;11.566;2023-06-19T14:43:09;28.83;42.88
64111;DHT22;50401;48.188;11.566;2023-06-19T14:45:35;28.83;42.78
64111;DHT22;50401;48.188;11.566;2023-06-19T14:48:01;28.79;42.94
64111;DHT22;50401;48.188;11.566;2023-06-19T14:50:27;28.90;42.95
64111;DHT22;50401;48.188;11.566;2023-06-19T14:52:53;28.91;42.81
64111;DHT22;50401;48.188;11.566;2023-06-19T14:55:18;28.96;42.60
64111;DHT22;50401;48.188;11.566;2023-06-19T14:57:46;28.99;42.51
64111;DHT22;50401;48.188;11.566;2023-06-19T15:00:13;29.01;42.45
64111;DHT22;50401;48.188;11.566;2023-06-19T15:02:38;29.01;42.34
64111;DHT22;50401;48.188;11.566;2023-06-19T15:05:04;28.90;42.34
64111;DHT22;50401;48.188;11.566;2023-06-19T15:07:30;29.03;42.30
64111;DHT22;50401;48.188;11.566;2023-06-19T15:09:56;28.90;42.32
64111;DHT22;50401;48.188;11.566;2023-06-19T15:12:21;28.60;42.81
64111;DHT22;50401;48.188;11.566;2023-06-19T15:14:47;28.42;43.27
64111;DHT22;50401;48.188;11.566;2023-06-19T15:17:12;28.48;43.29